createdAt,value
2022-09-07T07:19:49.079Z,60.04
2022-09-07T07:24:32.771Z,56.92
2022-09-07T07:29:27.582Z,57.79
2022-09-07T07:34:17.101Z,56.88
2022-09-07T07:44:01.921Z,57.42
2022-09-07T07:48:54.011Z,58.02
2022-09-07T07:53:46.660Z,57.98
2022-09-07T07:58:39.298Z,57.71
2022-09-07T08:03:32.300Z,57.52
2022-09-07T08:08:25.016Z,57.13
2022-09-07T08:13:17.911Z,56.78
2022-09-07T08:18:10.560Z,56.4
2022-09-07T08:23:03.012Z,55.64
2022-09-07T08:27:55.600Z,55.76
2022-09-07T08:32:48.195Z,56.27
2022-09-07T08:37:41.165Z,55.01
2022-09-07T08:42:33.973Z,55.45
2022-09-07T08:47:27.025Z,54.08
2022-09-07T08:52:19.512Z,54.12
2022-09-07T08:57:27.763Z,55.54
2022-09-07T09:10:54.391Z,53.44
2022-09-07T09:15:38.361Z,53.4
2022-09-07T09:20:30.054Z,53.57
2022-09-07T09:25:22.681Z,53.2
2022-09-07T09:30:15.601Z,54.79
2022-09-07T09:35:08.500Z,52.81
2022-09-07T09:40:02.698Z,53.48
2022-09-07T09:44:53.551Z,52.65
2022-09-07T09:49:46.238Z,52.54
2022-09-07T09:54:38.702Z,54.15
2022-09-07T10:04:24.928Z,53.61
2022-09-07T10:09:17.202Z,51.83
2022-09-07T10:14:11.153Z,51.83
2022-09-07T10:19:02.515Z,51.55
2022-09-07T10:23:55.309Z,51.48
2022-09-07T10:29:14.224Z,52.41
2022-09-07T10:33:41.098Z,51.67
2022-09-07T10:38:33.741Z,51.47
2022-09-07T10:43:26.595Z,50.99
2022-09-07T10:48:19.514Z,51.03
2022-09-07T10:53:36.855Z,50.26
2022-09-07T10:58:04.866Z,50.12
2022-09-07T11:07:50.229Z,50.11
2022-09-07T11:17:35.728Z,49.83
2022-09-07T11:27:21.225Z,50.37
2022-09-07T11:37:06.688Z,50.49
2022-09-07T11:46:52.525Z,50.91
2022-09-07T11:56:37.943Z,51.13
2022-09-07T12:06:23.775Z,51.07
2022-09-07T12:16:09.095Z,51.21
2022-09-07T12:21:01.942Z,51.24
2022-09-07T12:25:54.626Z,51.19
2022-09-07T12:30:47.420Z,51.07
2022-09-07T12:35:40.004Z,50.85
2022-09-07T12:40:32.798Z,50.87
2022-09-07T12:45:25.671Z,50.81
2022-09-07T12:50:19.520Z,50.94
2022-09-07T12:55:27.037Z,50.86
2022-09-07T13:00:04.487Z,51.73
2022-09-07T13:04:57.534Z,51.05
2022-09-07T13:09:50.440Z,51.71
2022-09-07T13:14:43.729Z,50.79
2022-09-07T13:19:35.942Z,51.54
2022-09-07T13:24:46.213Z,51.45
2022-09-07T13:29:21.437Z,51.74
2022-09-07T13:34:14.244Z,49.87
2022-09-07T13:39:07.272Z,49.85
2022-09-07T13:44:00.285Z,50.03
2022-09-07T13:48:53.107Z,51.77
2022-09-07T13:53:45.718Z,49.2
2022-09-07T13:58:38.517Z,48.91
2022-09-07T14:03:31.465Z,51
2022-09-07T14:08:23.980Z,49.26
2022-09-07T14:13:16.709Z,48.58
2022-09-07T14:18:09.721Z,48.7
2022-09-07T14:23:02.427Z,48.41
2022-09-07T14:27:54.750Z,48.07
2022-09-07T14:32:47.674Z,47.81
2022-09-07T14:37:40.197Z,48.17
2022-09-07T14:42:33.021Z,47.96
2022-09-07T14:47:25.572Z,48.06
2022-09-07T14:52:18.283Z,48.47
2022-09-07T14:57:11.132Z,48.31
2022-09-07T15:02:04.087Z,48.57
2022-09-07T15:07:03.859Z,48.7
2022-09-07T15:11:49.324Z,49.35
2022-09-07T15:16:42.077Z,52.86
2022-09-07T15:21:34.083Z,52.1
2022-09-07T15:41:22.241Z,51.91
2022-09-07T15:45:58.267Z,51.39
2022-09-07T15:50:50.927Z,51.67
2022-09-07T15:55:43.903Z,51.86
2022-09-07T16:00:36.740Z,51.8
2022-09-07T16:05:31.268Z,52.03
2022-09-07T16:10:22.011Z,52.08
2022-09-07T16:15:14.865Z,52.5
2022-09-07T16:20:07.551Z,52.45
2022-09-07T16:25:00.557Z,52.83
2022-09-07T16:29:53.677Z,53.29
2022-09-07T16:34:46.331Z,53.28
2022-09-07T16:39:39.104Z,53.28
2022-09-07T16:44:31.704Z,53.88
2022-09-07T16:49:24.240Z,53.96
2022-09-07T16:54:16.869Z,54.28
2022-09-07T16:59:09.789Z,54.03
2022-09-07T17:04:05.491Z,54.85
2022-09-07T17:08:55.150Z,54.23
2022-09-07T17:13:48.054Z,54.13
2022-09-07T17:23:39.417Z,54.81
2022-09-07T17:28:26.357Z,55.13
2022-09-07T17:33:19.035Z,54.41
2022-09-07T17:47:57.072Z,54.56
2022-09-07T17:52:52.623Z,54.6
2022-09-07T17:57:42.664Z,54.76
2022-09-07T18:02:34.959Z,54.92
2022-09-07T18:07:27.561Z,55.26
2022-09-07T18:12:20.250Z,54.9
2022-09-07T18:17:13.164Z,55.36
2022-09-07T18:22:05.719Z,55.27
2022-09-07T18:26:58.507Z,55.21
2022-09-07T18:31:51.368Z,55.23
2022-09-07T18:36:44.149Z,55.15
2022-09-07T18:41:36.615Z,54.94
2022-09-07T18:46:29.291Z,55.05
2022-09-07T18:51:22.042Z,55.02
2022-09-07T18:56:14.554Z,55.2
2022-09-07T19:01:07.366Z,55.02
2022-09-07T19:06:00.328Z,54.85
2022-09-07T19:10:53.383Z,54.58
2022-09-07T19:15:46.033Z,54.43
2022-09-07T19:20:38.456Z,54.48
2022-09-07T19:25:32.031Z,54.61
2022-09-07T19:30:23.904Z,54.51
2022-09-07T19:35:16.525Z,54.49
2022-09-07T19:40:09.132Z,54.75
2022-09-07T19:45:01.345Z,54.76
2022-09-07T19:49:54.062Z,54.69
2022-09-07T19:54:46.999Z,54.67
2022-09-07T19:59:39.538Z,54.71
2022-09-07T20:04:32.152Z,54.51
2022-09-07T20:09:24.830Z,54.56
2022-09-07T20:14:17.695Z,54.58
2022-09-07T20:19:10.289Z,54.44
2022-09-07T20:24:03.003Z,54.65
2022-09-07T20:29:10.921Z,54.33
2022-09-07T20:33:48.465Z,54.44
2022-09-07T20:38:41.056Z,54.38
2022-09-07T20:43:33.975Z,54.12
2022-09-07T20:48:26.790Z,53.96
2022-09-07T20:53:19.532Z,54.22
2022-09-07T20:58:12.020Z,54.2
2022-09-07T21:03:04.800Z,53.95
2022-09-07T21:07:57.466Z,53.91
2022-09-07T21:12:50.352Z,54.01
2022-09-07T21:17:43.025Z,53.82
2022-09-07T21:22:35.873Z,53.92
2022-09-07T21:27:28.765Z,53.88
2022-09-07T21:32:21.569Z,53.99
2022-09-07T21:37:14.342Z,53.89
2022-09-07T21:42:07.133Z,53.83
2022-09-07T21:47:00.051Z,53.88
2022-09-07T21:51:52.673Z,53.85
2022-09-07T21:56:46.745Z,53.96
2022-09-07T22:01:38.388Z,53.88
2022-09-07T22:06:31.109Z,53.92
2022-09-07T22:11:23.736Z,53.91
2022-09-07T22:16:16.659Z,53.79
2022-09-07T22:21:09.235Z,53.84
2022-09-07T22:26:01.993Z,53.75
2022-09-07T22:31:00.265Z,53.7
2022-09-07T22:35:51.776Z,53.63
2022-09-07T22:40:44.469Z,53.5
2022-09-07T22:45:37.110Z,53.57
2022-09-07T22:50:29.795Z,53.52
2022-09-07T22:55:22.562Z,53.56
2022-09-07T23:00:15.193Z,53.26
2022-09-07T23:05:07.915Z,53.25
2022-09-07T23:10:00.587Z,53.37
2022-09-07T23:14:53.263Z,53.29
2022-09-07T23:19:46.314Z,53.43
2022-09-07T23:24:39.283Z,53.02
2022-09-07T23:29:31.948Z,53.11
2022-09-07T23:34:24.485Z,53.06
2022-09-07T23:39:17.190Z,53.31
2022-09-07T23:44:09.804Z,53.16
2022-09-07T23:49:02.661Z,53.2
2022-09-07T23:53:55.330Z,53.23
2022-09-07T23:58:48.227Z,53.11
